Time;durP1;ratioP1;P1;durP2;ratioP2;P2;SDS_P1;SDS_P2;PMS_P1;PMS_P2;Temp;Humidity;BMP_temperature;BMP_pressure;BME280_temperature;BME280_humidity;BME280_pressure;Samples;Min_cycle;Max_cycle;Signal;HPM_P1;HPM_P2
2023/11/28 00:00:40;;;;;;;68.87;33.63;;;;;;;-3.48;82.81;99777.11;123314;1108;104031;-82
2023/11/28 00:03:33;;;;;;;74.00;34.15;;;;;;;-3.45;82.64;99777.36;123044;1109;119861;-80
2023/11/28 00:06:06;;;;;;;78.07;35.73;;;;;;;-3.41;82.38;99774.28;123080;1106;104069;-82
2023/11/28 00:08:39;;;;;;;82.70;39.87;;;;;;;-3.36;82.48;99775.52;123064;1105;104076;-82
2023/11/28 00:11:16;;;;;;;84.77;42.17;;;;;;;-3.32;83.11;99775.00;123076;1105;104060;-82
2023/11/28 00:13:49;;;;;;;86.37;44.50;;;;;;;-3.30;82.67;99770.88;123127;1105;104072;-81
2023/11/28 00:16:22;;;;;;;90.77;46.40;;;;;;;-3.28;83.09;99771.88;123084;1105;104162;-83
2023/11/28 00:18:55;;;;;;;86.50;44.17;;;;;;;-3.26;83.58;99779.70;123077;1106;104150;-82
2023/11/28 00:21:28;;;;;;;87.17;43.80;;;;;;;-3.27;83.12;99778.81;123095;1105;104054;-81
2023/11/28 00:24:02;;;;;;;93.13;44.13;;;;;;;-3.28;83.38;99777.02;122953;1106;111694;-81
2023/11/28 00:26:36;;;;;;;88.00;40.48;;;;;;;-3.27;83.04;99783.06;123099;1105;103945;-82
2023/11/28 00:29:09;;;;;;;76.13;37.57;;;;;;;-3.37;82.94;99781.42;123087;1109;104104;-83
2023/11/28 00:31:43;;;;;;;71.07;34.53;;;;;;;-3.44;82.17;99774.03;123073;1109;104104;-82
2023/11/28 00:34:16;;;;;;;73.30;34.57;;;;;;;-3.54;82.26;99768.94;123219;1105;104160;-81
2023/11/28 00:36:48;;;;;;;71.77;34.30;;;;;;;-3.64;82.90;99765.63;123198;1106;104088;-81
2023/11/28 00:39:22;;;;;;;73.25;35.15;;;;;;;-3.68;82.10;99784.10;123341;1105;103977;-82
2023/11/28 00:41:54;;;;;;;73.60;35.87;;;;;;;-3.70;82.10;99780.53;123301;1105;104044;-84
2023/11/28 00:44:27;;;;;;;74.23;34.53;;;;;;;-3.71;82.27;99783.89;123042;1106;104054;-83
2023/11/28 00:47:00;;;;;;;73.37;35.50;;;;;;;-3.72;82.31;99782.09;123028;1109;104077;-83
2023/11/28 00:49:33;;;;;;;73.35;34.75;;;;;;;-3.70;81.95;99779.64;123033;1105;104178;-83
2023/11/28 00:52:06;;;;;;;74.80;35.27;;;;;;;-3.71;81.96;99778.76;123192;1105;104031;-83
2023/11/28 00:54:39;;;;;;;75.60;36.53;;;;;;;-3.71;82.13;99786.45;123076;1105;104143;-83
2023/11/28 00:57:11;;;;;;;72.90;33.77;;;;;;;-3.69;82.23;99777.20;123107;1105;104066;-82
2023/11/28 00:59:46;;;;;;;70.03;34.10;;;;;;;-3.69;82.08;99782.33;123102;1106;104155;-81
2023/11/28 01:02:18;;;;;;;75.65;34.80;;;;;;;-3.66;82.50;99777.45;123074;1105;104165;-82
2023/11/28 01:04:52;;;;;;;81.17;40.40;;;;;;;-3.60;82.87;99777.02;123148;1108;104111;-83
2023/11/28 01:07:25;;;;;;;76.70;38.07;;;;;;;-3.55;83.01;99783.44;123114;1105;104131;-82
2023/11/28 01:09:57;;;;;;;70.87;33.93;;;;;;;-3.55;82.81;99779.95;123110;1105;104006;-82
2023/11/28 01:12:30;;;;;;;72.43;34.50;;;;;;;-3.61;82.02;99773.57;123177;1108;104057;-82
2023/11/28 01:15:03;;;;;;;68.90;35.10;;;;;;;-3.73;81.57;99777.72;123024;1105;104075;-83
2023/11/28 01:17:36;;;;;;;74.77;35.70;;;;;;;-3.84;81.79;99768.27;123179;1106;104143;-82
2023/11/28 01:20:10;;;;;;;76.70;37.17;;;;;;;-3.89;81.99;99772.14;123041;1106;104538;-81
2023/11/28 01:22:43;;;;;;;73.87;35.23;;;;;;;-3.91;81.81;99768.54;123345;1105;104152;-81
2023/11/28 01:25:15;;;;;;;72.70;35.60;;;;;;;-3.84;82.57;99775.97;123016;1105;104146;-82
2023/11/28 01:27:48;;;;;;;68.23;34.00;;;;;;;-3.83;82.95;99768.40;123174;1105;104050;-82
2023/11/28 01:30:20;;;;;;;77.10;36.50;;;;;;;-3.77;82.01;99764.53;123091;1105;103967;-81
2023/11/28 01:32:53;;;;;;;71.97;34.77;;;;;;;-3.74;82.37;99752.88;122925;1105;104621;-82
2023/11/28 01:35:26;;;;;;;71.65;33.60;;;;;;;-3.71;82.81;99762.45;122872;1105;104072;-82
2023/11/28 01:37:59;;;;;;;70.70;33.85;;;;;;;-3.67;83.23;99764.50;123036;1105;104069;-83
2023/11/28 01:40:31;;;;;;;73.27;34.60;;;;;;;-3.67;82.65;99764.50;123035;1105;104027;-82
2023/11/28 01:43:04;;;;;;;71.30;33.73;;;;;;;-3.69;82.55;99756.69;123086;1108;104574;-84
2023/11/28 01:45:37;;;;;;;70.37;34.37;;;;;;;-3.70;82.88;99764.26;123169;1105;104156;-83
2023/11/28 01:48:10;;;;;;;72.13;34.30;;;;;;;-3.71;82.11;99760.81;123037;1105;104044;-82
2023/11/28 01:50:44;;;;;;;73.13;35.30;;;;;;;-3.70;82.49;99757.45;123162;1108;104198;-82
2023/11/28 01:53:16;;;;;;;;;;;;;;;-3.68;82.70;99755.01;123177;1105;104069;-83
2023/11/28 01:55:48;;;;;;;68.93;34.30;;;;;;;-3.72;82.62;99751.31;123419;1105;104127;-83
2023/11/28 01:58:22;;;;;;;61.45;29.65;;;;;;;-3.69;82.30;99743.87;123323;1105;104121;-83
2023/11/28 02:00:54;;;;;;;60.70;29.47;;;;;;;-3.66;82.59;99738.98;123085;1105;104028;-83
2023/11/28 02:03:29;;;;;;;63.20;30.00;;;;;;;-3.64;82.45;99742.55;123074;1105;104146;-84
2023/11/28 02:06:03;;;;;;;67.35;31.20;;;;;;;-3.63;82.65;99740.88;122978;1108;104186;-83
2023/11/28 02:08:35;;;;;;;69.87;33.78;;;;;;;-3.64;82.17;99742.55;123075;1107;104140;-82
2023/11/28 02:11:08;;;;;;;76.77;35.63;;;;;;;-3.60;82.20;99746.25;122996;1105;104114;-83
2023/11/28 02:13:42;;;;;;;73.83;35.00;;;;;;;-3.57;82.92;99743.05;123102;1105;104187;-83
2023/11/28 02:16:18;;;;;;;79.07;38.20;;;;;;;-3.56;82.46;99743.16;123072;1106;104277;-83
2023/11/28 02:18:51;;;;;;;81.70;38.97;;;;;;;-3.59;82.75;99745.48;123206;1105;104041;-79
2023/11/28 02:21:23;;;;;;;77.63;38.30;;;;;;;-3.62;82.51;99735.87;123080;1105;104063;-82
2023/11/28 02:23:56;;;;;;;72.67;36.57;;;;;;;-3.67;82.54;99733.73;123097;1105;104143;-84
2023/11/28 02:26:29;;;;;;;65.10;31.47;;;;;;;-3.70;82.32;99733.48;123081;1108;107824;-84
2023/11/28 02:29:01;;;;;;;67.43;34.30;;;;;;;-3.73;82.44;99730.68;123218;1105;104073;-84
2023/11/28 02:31:34;;;;;;;67.77;32.83;;;;;;;-3.81;82.22;99723.27;123277;1105;104064;-83
2023/11/28 02:34:06;;;;;;;69.93;33.20;;;;;;;-3.87;82.13;99727.02;123141;1109;104073;-83
2023/11/28 02:36:40;;;;;;;69.50;33.77;;;;;;;-3.94;81.88;99720.52;123174;1105;104162;-82
2023/11/28 02:39:14;;;;;;;71.12;35.45;;;;;;;-4.00;82.53;99718.34;123099;1105;104066;-84
2023/11/28 02:41:47;;;;;;;76.73;37.20;;;;;;;-4.01;81.93;99721.66;123069;1109;104153;-84
2023/11/28 02:44:20;;;;;;;78.90;38.47;;;;;;;-4.09;82.16;99719.27;123124;1105;104022;-83
2023/11/28 02:46:53;;;;;;;80.33;37.47;;;;;;;-4.14;81.84;99711.22;123171;1109;104121;-83
2023/11/28 02:49:25;;;;;;;74.17;37.77;;;;;;;-4.11;81.99;99702.86;123173;1109;104187;-82
2023/11/28 02:51:58;;;;;;;63.03;29.23;;;;;;;-4.06;82.48;99697.34;122989;1109;104124;-83
2023/11/28 02:54:30;;;;;;;66.30;28.77;;;;;;;-3.99;82.58;99691.95;123101;1105;104156;-81
2023/11/28 02:57:03;;;;;;;58.37;28.27;;;;;;;-3.93;82.81;99694.09;123266;1105;104096;-83
2023/11/28 02:59:35;;;;;;;53.17;25.57;;;;;;;-3.89;82.08;99702.94;123255;1105;103998;-82
2023/11/28 03:02:08;;;;;;;52.33;23.87;;;;;;;-3.86;82.72;99705.74;123516;1105;104143;-82
2023/11/28 03:04:41;;;;;;;53.33;24.97;;;;;;;-3.81;82.61;99709.56;122919;1105;104025;-81
2023/11/28 03:07:13;;;;;;;44.20;21.27;;;;;;;-3.78;82.78;99696.98;123129;1104;105338;-83
2023/11/28 03:09:46;;;;;;;46.40;21.70;;;;;;;-3.78;81.95;99690.97;123427;1105;103993;-82
2023/11/28 03:12:19;;;;;;;49.57;22.87;;;;;;;-3.77;82.96;99695.30;123336;1105;104477;-82
2023/11/28 03:14:51;;;;;;;44.20;21.27;;;;;;;-3.73;82.86;99693.11;123341;1105;104187;-77
2023/11/28 03:17:24;;;;;;;44.63;20.67;;;;;;;-3.72;82.68;99701.72;123121;1106;104130;-82
2023/11/28 03:19:57;;;;;;;42.17;20.67;;;;;;;-3.73;81.91;99693.11;123285;1105;104050;-82
2023/11/28 03:22:30;;;;;;;45.20;21.00;;;;;;;-3.76;82.87;99690.30;123371;1109;104070;-82
2023/11/28 03:25:09;;;;;;;43.00;20.73;;;;;;;-3.74;82.30;99699.03;123143;1105;104443;-82
2023/11/28 03:27:42;;;;;;;48.40;21.47;;;;;;;-3.71;82.64;99693.23;123053;1106;118851;-82
2023/11/28 03:30:15;;;;;;;50.07;23.40;;;;;;;-3.68;83.15;99698.59;123111;1105;104072;-82
2023/11/28 03:32:48;;;;;;;46.57;20.90;;;;;;;-3.64;82.88;99686.14;123187;1105;103961;-81
2023/11/28 03:35:20;;;;;;;48.57;23.30;;;;;;;-3.62;83.01;99686.26;123011;1105;104449;-82
2023/11/28 03:37:53;;;;;;;41.90;20.50;;;;;;;-3.58;82.49;99678.05;122989;1105;103968;-81
2023/11/28 03:40:27;;;;;;;42.50;19.77;;;;;;;-3.54;83.29;99674.04;122946;1106;104191;-81
2023/11/28 03:43:00;;;;;;;41.95;19.15;;;;;;;-3.55;82.49;99677.37;123047;1105;104516;-82
2023/11/28 03:45:32;;;;;;;43.57;20.57;;;;;;;-3.55;82.40;99675.72;123035;1106;104575;-80
2023/11/28 03:48:05;;;;;;;47.60;20.10;;;;;;;-3.53;82.44;99673.27;123116;1106;104143;-83
2023/11/28 03:50:38;;;;;;;41.90;18.73;;;;;;;-3.53;82.58;99673.27;123006;1109;104156;-81
2023/11/28 03:53:10;;;;;;;39.97;19.73;;;;;;;-3.54;83.25;99666.34;123092;1105;104066;-80
2023/11/28 03:55:43;;;;;;;41.40;20.90;;;;;;;-3.50;83.03;99668.38;123060;1105;104044;-83
2023/11/28 03:58:15;;;;;;;41.77;18.57;;;;;;;-3.48;82.98;99664.25;123314;1105;104067;-82
2023/11/28 04:00:50;;;;;;;41.50;18.27;;;;;;;-3.48;82.49;99669.39;123089;1109;104105;-82
2023/11/28 04:03:22;;;;;;;47.13;20.60;;;;;;;-3.50;82.93;99665.82;123248;1105;104133;-81
2023/11/28 04:05:55;;;;;;;44.50;18.90;;;;;;;-3.48;82.48;99670.27;122784;1105;104527;-78
2023/11/28 04:08:28;;;;;;;41.90;18.97;;;;;;;-3.44;82.85;99653.47;122518;1105;104140;-78
2023/11/28 04:11:01;;;;;;;37.00;16.33;;;;;;;-3.44;82.77;99653.47;122581;1105;104059;-78
2023/11/28 04:13:34;;;;;;;38.70;18.23;;;;;;;-3.49;82.63;99652.20;122472;1109;104136;-79
2023/11/28 04:16:07;;;;;;;41.80;18.07;;;;;;;-3.49;83.14;99647.06;122486;1108;104142;-79
2023/11/28 04:18:40;;;;;;;38.95;18.32;;;;;;;-3.48;82.99;99648.87;122499;1105;104133;-79
2023/11/28 04:21:19;;;;;;;39.83;17.67;;;;;;;-3.51;82.79;99644.38;122491;1105;104254;-79
2023/11/28 04:23:52;;;;;;;39.35;18.20;;;;;;;-3.51;82.62;99643.50;122675;1106;104022;-79
2023/11/28 04:26:24;;;;;;;35.10;16.80;;;;;;;-3.51;82.45;99649.52;122701;1105;104143;-79
2023/11/28 04:28:57;;;;;;;38.60;17.33;;;;;;;-3.49;82.72;99644.50;122822;1105;104127;-78
2023/11/28 04:31:32;;;;;;;36.30;16.13;;;;;;;-3.46;82.63;99639.61;122574;1105;104117;-79
2023/11/28 04:34:04;;;;;;;34.93;14.63;;;;;;;-3.45;83.11;99637.16;122521;1106;104472;-80
2023/11/28 04:36:37;;;;;;;32.93;15.00;;;;;;;-3.44;83.49;99631.27;122694;1106;104078;-79
2023/11/28 04:39:11;;;;;;;36.40;16.37;;;;;;;-3.44;82.39;99628.70;122523;1106;111583;-79
2023/11/28 04:41:47;;;;;;;31.60;13.67;;;;;;;-3.45;83.40;99626.91;122611;1106;104105;-80
2023/11/28 04:44:19;;;;;;;31.95;13.80;;;;;;;-3.46;82.97;99626.78;122609;1104;104155;-79
2023/11/28 04:46:52;;;;;;;31.60;14.15;;;;;;;-3.45;82.55;99623.45;122772;1109;104123;-80
2023/11/28 04:49:24;;;;;;;33.23;14.53;;;;;;;-3.44;82.65;99625.25;122504;1109;104197;-80
2023/11/28 04:51:58;;;;;;;34.67;15.63;;;;;;;-3.43;83.80;99616.76;122600;1106;104083;-79
2023/11/28 04:54:31;;;;;;;35.00;15.70;;;;;;;-3.41;82.65;99622.92;122544;1106;104152;-79
2023/11/28 04:57:04;;;;;;;30.00;13.63;;;;;;;-3.37;83.33;99614.66;122630;1107;104131;-79
2023/11/28 04:59:37;;;;;;;34.43;14.23;;;;;;;-3.35;83.46;99607.08;122618;1105;107600;-80
2023/11/28 05:02:10;;;;;;;35.10;15.25;;;;;;;-3.34;83.14;99621.71;122707;1105;104128;-78
2023/11/28 05:04:43;;;;;;;32.50;14.70;;;;;;;-3.35;83.18;99613.13;122693;1105;104134;-79
2023/11/28 05:07:18;;;;;;;33.23;16.00;;;;;;;-3.35;82.99;99610.56;122662;1106;104146;-79
2023/11/28 05:09:50;;;;;;;33.10;14.70;;;;;;;-3.35;83.21;99620.83;122495;1108;118951;-78
2023/11/28 05:12:23;;;;;;;31.37;14.63;;;;;;;-3.36;83.59;99628.41;122555;1105;104089;-79
2023/11/28 05:14:56;;;;;;;36.55;16.25;;;;;;;-3.34;83.17;99621.71;122659;1108;104101;-78
2023/11/28 05:17:29;;;;;;;33.83;15.33;;;;;;;-3.32;83.54;99630.41;122830;1109;104162;-79
2023/11/28 05:20:01;;;;;;;36.53;15.80;;;;;;;-3.39;82.30;99623.92;122845;1105;104532;-79
2023/11/28 05:22:34;;;;;;;38.20;16.30;;;;;;;-3.39;83.02;99623.04;123023;1105;104168;-79
2023/11/28 05:25:08;;;;;;;34.93;16.87;;;;;;;-3.40;83.02;99614.43;122991;1106;104280;-82
2023/11/28 05:27:41;;;;;;;43.52;19.82;;;;;;;-3.41;82.31;99616.88;123313;1106;104145;-81
2023/11/28 05:30:16;;;;;;;46.70;21.67;;;;;;;-3.42;83.12;99615.99;123066;1109;104239;-81
2023/11/28 05:32:49;;;;;;;46.70;20.23;;;;;;;-3.46;82.22;99621.66;123625;1106;104043;-83
2023/11/28 05:35:22;;;;;;;43.87;20.63;;;;;;;-3.53;82.41;99620.30;123539;1105;104214;-80
2023/11/28 05:37:55;;;;;;;52.40;24.57;;;;;;;-3.61;81.97;99622.27;123704;1105;104117;-80
2023/11/28 05:40:27;;;;;;;50.23;22.77;;;;;;;-3.67;82.38;99628.60;123637;1105;103305;-78
2023/11/28 05:43:01;;;;;;;47.20;22.07;;;;;;;-3.68;82.55;99625.13;123493;1109;104102;-76
2023/11/28 05:45:34;;;;;;;45.25;21.48;;;;;;;-3.65;82.32;99625.36;123926;1105;103957;-79
2023/11/28 05:48:11;;;;;;;41.37;18.90;;;;;;;-3.61;82.40;99634.20;123479;1106;104047;-79
2023/11/28 05:50:44;;;;;;;39.67;19.40;;;;;;;-3.56;82.68;99634.56;123655;1109;107992;-79
2023/11/28 05:53:18;;;;;;;37.47;18.47;;;;;;;-3.53;82.68;99635.69;123562;1109;104053;-78
2023/11/28 05:55:51;;;;;;;37.80;16.70;;;;;;;-3.47;82.94;99631.03;123777;1108;104114;-78
2023/11/28 05:58:24;;;;;;;35.28;16.65;;;;;;;-3.40;82.60;99631.50;115486;1105;10001391;-77
2023/11/28 06:00:58;;;;;;;38.37;17.23;;;;;;;-3.40;83.62;99624.69;123868;1105;103864;-78
2023/11/28 06:03:32;;;;;;;36.60;17.52;;;;;;;-3.37;83.17;99618.91;123833;1105;104047;-78
2023/11/28 06:06:06;;;;;;;34.93;16.63;;;;;;;-3.33;82.61;99628.64;123681;1109;104102;-76
2023/11/28 06:08:39;;;;;;;35.20;16.85;;;;;;;-3.31;83.26;99633.09;123374;1105;104076;-80
2023/11/28 06:11:14;;;;;;;39.97;17.67;;;;;;;-3.23;83.52;99632.80;123795;1105;107813;-79
2023/11/28 06:13:46;;;;;;;;;;;;;;;-3.19;83.34;99611.73;123713;1105;103996;-78
2023/11/28 06:16:19;;;;;;;36.33;15.90;;;;;;;-3.15;82.71;99616.30;125642;1105;101561;-78
2023/11/28 06:18:52;;;;;;;38.60;17.77;;;;;;;-3.12;82.88;99611.40;123718;1109;104427;-77
2023/11/28 06:21:30;;;;;;;35.33;17.63;;;;;;;-3.04;83.60;99609.41;123640;1105;118722;-78
2023/11/28 06:24:04;;;;;;;38.90;17.60;;;;;;;-3.02;83.08;99619.02;123501;1109;104460;-78
2023/11/28 06:26:39;;;;;;;36.20;16.60;;;;;;;-2.95;82.71;99610.98;123721;1105;104029;-78
2023/11/28 06:29:15;;;;;;;38.20;18.37;;;;;;;-2.80;82.96;99610.36;123999;1105;104083;-79
2023/11/28 06:31:48;;;;;;;37.98;16.48;;;;;;;-2.69;83.14;99606.90;124050;1105;103967;-76
2023/11/28 06:34:21;;;;;;;33.70;15.90;;;;;;;-2.69;82.71;99601.77;124063;1105;104601;-77
2023/11/28 06:36:57;;;;;;;37.80;17.50;;;;;;;-2.66;83.78;99594.28;123985;1109;101971;-77
2023/11/28 06:39:33;;;;;;;34.70;16.63;;;;;;;-2.61;84.01;99595.50;123807;1105;104047;-77
2023/11/28 06:42:15;;;;;;;38.37;16.40;;;;;;;-2.54;83.76;99591.70;123631;1109;114174;-77
2023/11/28 06:45:26;;;;;;;37.33;17.23;;;;;;;-2.44;83.97;99588.14;124776;1105;104999;-77
2023/11/28 06:48:09;;;;;;;31.77;15.50;;;;;;;-2.31;84.55;99585.66;123753;1105;104181;-77
2023/11/28 06:50:52;;;;;;;34.10;16.07;;;;;;;-2.21;84.52;99576.95;123622;1106;104167;-77
2023/11/28 06:53:30;;;;;;;36.83;16.30;;;;;;;-2.12;83.76;99574.12;123921;1105;103980;-78
2023/11/28 06:56:16;;;;;;;;;;;;;;;;;;;;;
2023/11/28 06:58:53;;;;;;;32.10;15.47;;;;;;;-1.93;84.39;99561.78;124193;1105;102152;-80
2023/11/28 07:01:37;;;;;;;35.90;16.97;;;;;;;-1.89;83.77;99556.05;124222;1109;104119;-79
2023/11/28 07:04:25;;;;;;;34.67;16.80;;;;;;;-1.83;83.63;99559.05;125103;1108;102186;-82
2023/11/28 07:07:02;;;;;;;34.67;16.00;;;;;;;-1.69;84.94;99554.86;124914;1109;102648;-78
2023/11/28 07:09:40;;;;;;;33.00;16.00;;;;;;;-1.58;84.29;99547.00;124331;1106;104030;-80
2023/11/28 07:12:19;;;;;;;30.83;15.87;;;;;;;-1.49;84.59;99548.52;124531;1106;103164;-78
2023/11/28 07:14:57;;;;;;;32.50;15.50;;;;;;;-1.38;84.54;99548.36;124555;1105;101978;-80
2023/11/28 07:20:28;;;;;;;32.30;15.13;;;;;;;-1.15;83.97;99537.91;124922;1109;102705;-86
2023/11/28 07:23:05;;;;;;;28.50;13.23;;;;;;;-1.11;84.66;99526.13;124992;1109;110827;-78
2023/11/28 07:25:40;;;;;;;32.37;15.30;;;;;;;-0.99;84.60;99524.36;124161;1105;102493;-79
2023/11/28 07:28:17;;;;;;;36.23;15.20;;;;;;;-0.81;85.26;99522.11;124344;1109;102295;-82
2023/11/28 07:30:54;;;;;;;31.10;14.05;;;;;;;-0.67;85.02;99524.67;124825;1109;102689;-80
2023/11/28 07:33:30;;;;;;;28.83;13.60;;;;;;;-0.54;85.28;99522.09;124122;1106;104047;-78
2023/11/28 07:36:14;;;;;;;33.07;15.10;;;;;;;-0.41;85.38;99522.06;124440;1106;101873;-79
2023/11/28 07:38:50;;;;;;;30.93;15.33;;;;;;;-0.33;84.53;99525.12;125832;1105;101628;-75
2023/11/28 07:41:24;;;;;;;34.03;15.20;;;;;;;-0.27;84.38;99510.05;124890;1105;103609;-77
2023/11/28 07:44:06;;;;;;;31.33;15.38;;;;;;;-0.15;85.21;99504.78;124057;1105;104488;-77
2023/11/28 07:46:48;;;;;;;29.70;15.10;;;;;;;-0.01;85.39;99515.95;123840;1109;104093;-76
2023/11/28 07:49:21;;;;;;;30.77;14.60;;;;;;;0.10;85.48;99506.30;123999;1105;102218;-76
2023/11/28 07:51:54;;;;;;;29.50;13.87;;;;;;;0.19;85.22;99509.44;123892;1105;104057;-75
2023/11/28 07:54:28;;;;;;;29.03;12.90;;;;;;;0.22;84.55;99519.94;123883;1105;104146;-76
2023/11/28 07:57:01;;;;;;;27.90;15.07;;;;;;;0.30;85.04;99517.83;123839;1106;102447;-77
2023/11/28 07:59:52;;;;;;;29.30;15.05;;;;;;;0.44;85.06;99516.96;123832;1108;102122;-77
2023/11/28 08:02:25;;;;;;;28.07;13.70;;;;;;;0.52;84.84;99509.68;123909;1105;103503;-75
2023/11/28 08:04:59;;;;;;;27.73;13.83;;;;;;;0.58;85.55;99496.22;124030;1105;102392;-78
2023/11/28 08:07:35;;;;;;;;;;;;;;;0.67;85.09;99495.09;124143;1109;103970;-76
2023/11/28 08:10:14;;;;;;;30.80;15.13;;;;;;;0.73;85.10;99491.96;124218;1108;104069;-76
2023/11/28 08:12:50;;;;;;;31.40;16.03;;;;;;;0.84;84.93;99492.59;124039;1109;103970;-77
2023/11/28 08:15:25;;;;;;;29.77;15.90;;;;;;;0.86;85.01;99485.84;124284;1105;101678;-77
2023/11/28 08:17:58;;;;;;;34.43;16.77;;;;;;;0.89;85.07;99488.61;124280;1105;104165;-77
2023/11/28 08:20:31;;;;;;;32.23;15.87;;;;;;;0.97;85.72;99487.34;124245;1105;103359;-78
2023/11/28 08:23:07;;;;;;;32.28;16.15;;;;;;;1.06;85.42;99489.55;124368;1105;103562;-77
2023/11/28 08:25:48;;;;;;;28.90;15.33;;;;;;;1.17;85.26;99491.06;124051;1109;104005;-76
2023/11/28 08:28:21;;;;;;;33.03;16.23;;;;;;;1.25;85.44;99486.33;124117;1105;102583;-76
2023/11/28 08:30:56;;;;;;;30.13;14.77;;;;;;;1.36;85.52;99484.36;124455;1105;103007;-75
2023/11/28 08:33:30;;;;;;;29.83;14.43;;;;;;;1.43;85.85;99489.04;124260;1105;101922;-78
2023/11/28 08:36:05;;;;;;;28.15;14.18;;;;;;;1.40;85.12;99479.44;124343;1109;102810;-77
2023/11/28 08:38:42;;;;;;;29.10;15.00;;;;;;;1.34;85.04;99481.69;124124;1105;103205;-79
2023/11/28 08:41:19;;;;;;;29.23;15.27;;;;;;;1.25;85.34;99476.88;124122;1109;102890;-76
2023/11/28 08:43:56;;;;;;;30.90;16.13;;;;;;;1.15;84.68;99473.69;123844;1105;103957;-78
2023/11/28 08:46:30;;;;;;;36.33;16.43;;;;;;;1.01;84.57;99476.39;123523;1108;103983;-79
2023/11/28 08:49:14;;;;;;;31.47;15.63;;;;;;;0.89;84.74;99471.41;123938;1105;104050;-76
2023/11/28 08:51:48;;;;;;;33.03;16.23;;;;;;;0.81;84.67;99472.66;124170;1105;104053;-77
2023/11/28 08:54:22;;;;;;;31.05;15.83;;;;;;;0.82;84.85;99470.96;123981;1106;104016;-77
2023/11/28 08:56:57;;;;;;;30.40;15.50;;;;;;;0.89;85.21;99470.52;123956;1105;104037;-80
2023/11/28 08:59:40;;;;;;;34.53;16.63;;;;;;;0.93;85.22;99462.13;124305;1105;104083;-81
2023/11/28 09:02:15;;;;;;;35.17;16.67;;;;;;;1.03;85.65;99458.40;125095;1105;102286;-77
2023/11/28 09:04:56;;;;;;;35.30;17.80;;;;;;;1.13;85.38;99449.47;124026;1105;104046;-80
2023/11/28 09:07:52;;;;;;;35.23;16.60;;;;;;;1.15;85.10;99443.55;124851;1105;103965;-78
2023/11/28 09:10:40;;;;;;;31.93;16.47;;;;;;;1.20;84.27;99441.23;123709;1105;104206;-76
2023/11/28 09:13:15;;;;;;;32.23;16.10;;;;;;;1.23;85.24;99425.90;123500;1108;102398;-76
2023/11/28 09:16:05;;;;;;;31.10;15.40;;;;;;;1.28;84.91;99421.89;123891;1109;104101;-77
2023/11/28 09:21:25;;;;;;;31.77;16.27;;;;;;;1.41;84.90;99406.23;124742;1105;103989;-78
2023/11/28 09:24:03;;;;;;;30.93;15.17;;;;;;;1.44;84.58;99406.40;123967;1105;103991;-79
2023/11/28 09:26:39;;;;;;;28.30;14.07;;;;;;;1.43;85.22;99409.81;123867;1105;118359;-77
2023/11/28 09:29:12;;;;;;;28.40;13.93;;;;;;;1.39;84.64;99402.69;123785;1105;103977;-78
2023/11/28 09:31:45;;;;;;;29.83;13.43;;;;;;;1.41;84.50;99401.06;123966;1109;101890;-78
2023/11/28 09:34:21;;;;;;;26.60;12.90;;;;;;;1.42;84.19;99386.47;123596;1105;104458;-79
2023/11/28 09:36:55;;;;;;;29.07;13.87;;;;;;;1.46;85.24;99385.80;123809;1108;103971;-78
2023/11/28 09:39:27;;;;;;;26.37;12.90;;;;;;;1.56;84.97;99382.04;123571;1106;103958;-80
2023/11/28 09:42:12;;;;;;;26.97;12.47;;;;;;;1.54;84.81;99376.78;123890;1105;103179;-77
2023/11/28 09:44:52;;;;;;;31.73;13.30;;;;;;;1.56;84.25;99376.86;124195;1105;102525;-79
2023/11/28 09:47:33;;;;;;;32.90;14.03;;;;;;;1.54;84.79;99375.87;124080;1105;102539;-79
2023/11/28 09:50:22;;;;;;;28.03;13.53;;;;;;;1.60;84.48;99361.56;123945;1105;105012;-76
2023/11/28 09:53:28;;;;;;;29.00;13.83;;;;;;;1.64;84.26;99354.88;124786;1109;104177;-82
2023/11/28 09:56:11;;;;;;;28.43;13.20;;;;;;;1.72;84.68;99339.77;124143;1105;104133;-79
2023/11/28 09:58:47;;;;;;;30.30;14.93;;;;;;;1.82;84.80;99333.36;125732;1105;102109;-77
2023/11/28 10:01:23;;;;;;;29.47;14.10;;;;;;;1.96;84.69;99334.95;125142;1106;102025;-80
2023/11/28 10:04:11;;;;;;;31.57;15.07;;;;;;;2.04;84.49;99318.14;123943;1105;104012;-81
2023/11/28 10:06:46;;;;;;;30.07;14.60;;;;;;;2.14;85.28;99320.36;124022;1105;102337;-80
2023/11/28 10:09:49;;;;;;;33.37;14.93;;;;;;;2.31;84.88;99316.03;123962;1105;103068;-77
2023/11/28 10:12:22;;;;;;;27.70;13.23;;;;;;;2.46;84.63;99302.95;125439;1106;103404;-79
2023/11/28 10:15:06;;;;;;;22.57;10.60;;;;;;;2.63;85.26;99290.83;123956;1105;104009;-76
2023/11/28 10:17:44;;;;;;;27.07;11.20;;;;;;;2.75;85.33;99290.50;124079;1105;102988;-78
2023/11/28 10:20:17;;;;;;;24.27;10.40;;;;;;;2.85;84.85;99282.36;124162;1105;103996;-77
2023/11/28 10:22:56;;;;;;;21.42;9.25;;;;;;;2.98;84.79;99280.34;124033;1105;102124;-79
2023/11/28 10:25:29;;;;;;;18.60;8.33;;;;;;;3.12;85.29;99276.67;124108;1105;104072;-81
2023/11/28 10:28:28;;;;;;;19.37;9.17;;;;;;;3.26;84.53;99273.80;124928;1105;103993;-77
2023/11/28 10:31:22;;;;;;;19.43;7.90;;;;;;;3.31;85.17;99262.83;123930;1108;102384;-81
2023/11/28 10:34:11;;;;;;;17.30;7.73;;;;;;;3.38;84.99;99259.70;124955;1106;103813;-76
2023/11/28 10:36:52;;;;;;;16.53;7.23;;;;;;;3.40;84.72;99251.98;123892;1105;102271;-75
2023/11/28 10:39:27;;;;;;;19.13;7.30;;;;;;;3.37;85.19;99238.89;124106;1105;103951;-76
2023/11/28 10:42:21;;;;;;;15.20;6.80;;;;;;;3.44;85.37;99243.50;123861;1105;102349;-74
2023/11/28 10:45:16;;;;;;;18.23;7.13;;;;;;;3.50;84.87;99232.52;123634;1108;104102;-75
2023/11/28 10:47:52;;;;;;;16.73;6.50;;;;;;;3.54;85.15;99224.06;123900;1109;103964;-77
2023/11/28 10:50:27;;;;;;;17.50;6.67;;;;;;;3.54;84.68;99226.66;123993;1106;103964;-78
2023/11/28 10:53:05;;;;;;;14.60;6.03;;;;;;;3.52;84.81;99221.41;123934;1105;104086;-80
2023/11/28 10:55:51;;;;;;;14.33;5.73;;;;;;;3.52;85.04;99220.50;124094;1109;102918;-78
2023/11/28 10:58:39;;;;;;;13.83;5.80;;;;;;;3.56;84.24;99212.91;125747;1105;101612;-79
2023/11/28 11:01:14;;;;;;;15.33;6.30;;;;;;;3.49;84.29;99209.98;125718;1109;102525;-78
2023/11/28 11:03:51;;;;;;;12.07;5.53;;;;;;;3.46;84.91;99202.98;125580;1109;101821;-77
2023/11/28 11:06:26;;;;;;;13.30;5.87;;;;;;;3.52;85.27;99202.34;125528;1105;102376;-77
2023/11/28 11:09:02;;;;;;;13.07;5.43;;;;;;;3.58;83.71;99185.36;125645;1106;102441;-77
2023/11/28 11:11:40;;;;;;;11.43;5.20;;;;;;;3.54;84.09;99188.62;125657;1105;101969;-77
2023/11/28 11:14:45;;;;;;;13.73;5.40;;;;;;;3.52;83.88;99185.09;125509;1105;104709;-77
2023/11/28 11:17:34;;;;;;;11.17;5.40;;;;;;;3.50;84.01;99173.75;125494;1108;102437;-80
2023/11/28 11:20:23;;;;;;;13.30;5.13;;;;;;;3.45;84.12;99169.20;125546;1106;101767;-78
2023/11/28 11:23:05;;;;;;;12.70;4.87;;;;;;;3.47;84.04;99163.23;125628;1105;102313;-78
2023/11/28 11:25:45;;;;;;;13.53;5.40;;;;;;;3.51;83.61;99159.09;125619;1105;102322;-78
2023/11/28 11:28:21;;;;;;;12.53;4.67;;;;;;;3.52;84.05;99158.25;125592;1105;102188;-81
2023/11/28 11:34:41;;;;;;;12.90;5.63;;;;;;;3.64;83.89;99137.14;125345;1106;103013;-78
2023/11/28 11:37:32;;;;;;;11.93;5.20;;;;;;;3.73;84.39;99140.11;125665;1105;101272;-80
2023/11/28 11:46:45;;;;;;;12.63;5.33;;;;;;;3.92;84.38;99121.85;125380;1108;102105;-79
2023/11/28 11:49:38;;;;;;;9.50;4.67;;;;;;;4.01;84.28;99115.28;124537;1105;101922;-79
2023/11/28 11:52:27;;;;;;;;;;;;;;;4.07;84.02;99102.54;123985;1109;104110;-79
2023/11/28 11:58:59;;;;;;;15.67;5.47;;;;;;;4.35;84.20;99100.98;125535;1109;102728;-81
2023/11/28 12:02:28;;;;;;;13.07;5.47;;;;;;;4.50;83.58;99091.17;124047;1109;108435;-80
2023/11/28 12:05:04;;;;;;;13.50;5.70;;;;;;;4.46;83.83;99084.11;125708;1109;102348;-80
2023/11/28 12:10:48;;;;;;;12.23;5.33;;;;;;;4.27;83.70;99065.23;125165;1108;103967;-79